Terminal Aerodrome Forecast
Issued by NWS

Home | Current Version | Previous Version | Text Only | Print | Product List | Glossary On
Versions: 1 2 3 4 5 6 7 8 9 10 11 12 13 14 15 16
000
FTUS41 KBTV 221743
TAFSLK
TAF
KSLK 221743Z 2218/2318 21015G25KT P6SM VCSH SCT035 BKN050
     FM222000 24025G40KT 2SM +TSRA OVC025CB
     FM222300 22011KT P6SM SHRA VCTS BKN010CB OVC015
     FM230200 23011KT P6SM -SHRA SCT008 BKN010
     FM230700 25011G17KT P6SM SCT008 BKN010
     FM230900 25010G17KT P6SM FEW003 SCT008
     FM231600 26012G20KT P6SM BKN040
     FM231700 26013G20KT P6SM SCT040=

USA.gov is the U.S. government's official web portal to all federal, state and local government web resources and services.